Aviation Digital Data Service (ADDS)

Output produced by METARs form (1322 UTC 19 July 2018)
found at http://www.aviationweather.gov/adds/metars/
 
KHKS 191316Z 19003KT 1 3/4SM BR OVC002 25/25 A2998 RMK AO2 T02500250
KHKS 191309Z 21003KT 3/4SM BR OVC002 25/25 A2998 RMK AO2 T02500250
KHKS 191253Z 00000KT 1 1/4SM BR OVC002 24/24 A2998 RMK AO2 SLP143 T02440244
KHKS 191244Z 21003KT 1 1/2SM BR OVC002 24/24 A2997 RMK AO2 T02440244
KHKS 191221Z 18004KT 2 1/2SM BR OVC002 24/24 A2997 RMK AO2 T02440244
KHKS 191153Z AUTO 16004KT 4SM BR OVC003 24/24 A2996 RMK AO2 SLP139 70013 T02390239 10244 20233 51012
KHKS 191140Z AUTO 14003KT 5SM BR BKN003 24/24 A2996 RMK AO2 T02390239
KHKS 191108Z AUTO 15003KT 6SM BR SCT002 BKN100 24/24 A2996 RMK AO2 T02390239
KHKS 191053Z AUTO 15003KT 6SM BR BKN002 OVC100 24/24 A2996 RMK AO2 SLP137 T02390239
KHKS 190953Z AUTO 14003KT 7SM BKN003 BKN018 OVC120 24/24 A2995 RMK AO2 SLP132 T02390239
KHKS 190947Z AUTO 14003KT 8SM SCT003 BKN018 BKN110 24/24 A2994 RMK AO2
KHKS 190853Z AUTO 00000KT 10SM OVC120 24/24 A2993 RMK AO2 SLP126 T02390239 55000
KHKS 190753Z AUTO 15003KT 10SM CLR 24/24 A2992 RMK AO2 SLP122 T02390239
KHKS 190653Z AUTO 00000KT 10SM CLR 24/24 A2992 RMK AO2 SLP121 T02390239
KHKS 190553Z AUTO 00000KT 9SM CLR 24/24 A2993 RMK AO2 SLP126 60003 T02390239 10244 20233 403390233 58009
KHKS 190453Z AUTO 00000KT 10SM CLR 24/24 A2994 RMK AO2 SLP130 T02390239
KHKS 190353Z AUTO 00000KT 10SM CLR 24/24 A2995 RMK AO2 SLP133 T02390239
KHKS 190253Z AUTO 00000KT 10SM CLR 24/24 A2996 RMK AO2 SLP136 60003 T02390239 53000
KHKS 190153Z AUTO 00000KT 10SM SCT110 24/24 A2996 RMK AO2 RAE36 SLP135 P0000 T02390239
KHKS 190053Z 16003KT 10SM -RA FEW120 24/23 A2996 RMK AO2 SLP135 P0003 T02390233
KHKS 182353Z 18003KT 8SM -RA CLR 24/24 A2996 RMK AO2 SLP135 P0004 60010 T02440239 10339 20239 55006
KHKS 182253Z 34003KT 10SM -RA FEW110 24/23 A2992 RMK AO2 SLP124 P0006 T02440233
KHKS 182153Z 36009G19KT 320V070 3SM RA BR SCT010 BKN065 26/24 A2997 RMK AO2 LTG DSNT W RAB48 SLP139 P0000 T02610244
KHKS 182151Z 33010G19KT 2SM -RA BR FEW013 BKN065 27/24 A2998 RMK AO2 VIS 1/2V5 LTG DSNT W RAB48 PRESRR P0000
KHKS 182053Z 29011KT 10SM CLR 31/24 A2992 RMK AO2 LTG DSNT N RAE11 SLP123 P0000 60000 T03060239 56017
KHKS 181953Z VRB05G19KT 8SM -RA SCT032 SCT095 29/26 A2994 RMK AO2 LTG DSNT NE-SE RAB48 SLP128 P0000 T02940256
KHKS 181930Z 27005KT 10SM FEW033 SCT085 33/26 A2994 RMK AO2 LTG DSNT E AND SE T03330256
KHKS 181907Z 23005KT 10SM VCTS CLR 33/26 A2995 RMK AO2 LTG DSNT ALQDS T03280256
KHKS 181853Z VRB04KT 10SM CLR 33/26 A2995 RMK AO2 LTG DSNT N AND NE SLP134 T03280256
KHKS 181753Z VRB03KT 10SM CLR 32/24 A2997 RMK AO2 SLP141 T03220239 10322 20250 58012
KHKS 181721Z VRB04KT 10SM SCT026 32/25 A2999 RMK AO2 T03220250
KHKS 181705Z 26005KT 10SM BKN025 31/25 A2999 RMK AO2 T03110250
KHKS 181653Z 27004KT 10SM SCT027 31/25 A2999 RMK AO2 SLP146 T03110250
KHKS 181553Z 28004KT 10SM FEW022 31/25 A3000 RMK AO2 SLP149 T03060250
KHKS 181453Z 30003KT 10SM CLR 29/26 A3001 RMK AO2 SLP153 T02940256 58001
KHKS 181353Z 30004KT 9SM CLR 28/26 A3001 RMK AO2 SLP154 T02830256
KHKS 181253Z 24005KT 9SM CLR 27/25 A3001 RMK AO2 SLP152 T02670250
KHKS 181153Z 00000KT 6SM BR CLR 25/24 A3001 RMK AO2 SLP153 70038 T02500244 10256 20239 52007
KHKS 181053Z AUTO 00000KT 8SM CLR 24/24 A3000 RMK AO2 SLP150 T02440244
KHKS 180953Z AUTO 00000KT 7SM FEW060 24/24 A3000 RMK AO2 SLP150 T02440244
KHKS 180853Z AUTO 00000KT 8SM CLR 24/24 A2999 RMK AO2 SLP146 T02440244 55004
KHKS 180753Z AUTO 00000KT 8SM FEW070 24/24 A2998 RMK AO2 SLP144 T02440244
KHKS 180653Z AUTO 00000KT 9SM CLR 25/24 A2998 RMK AO2 SLP143 T02500244
KHKS 180553Z AUTO 00000KT 10SM CLR 26/24 A3000 RMK AO2 SLP150 T02560244 10283 20250 403060233 58006
KHKS 180453Z AUTO 00000KT 10SM CLR 26/24 A3001 RMK AO2 SLP154 T02560244
KHKS 180353Z AUTO 24003KT 10SM CLR 26/25 A3003 RMK AO2 LTG DSNT NW SLP159 T02560250
KHKS 180253Z AUTO 24004KT 10SM SCT120 26/25 A3002 RMK AO2 SLP157 T02610250 51012
KHKS 180153Z 22005KT 10SM CLR 27/25 A3000 RMK AO2 SLP150 T02670250
KHKS 180053Z 24005KT 10SM CLR 27/25 A3001 RMK AO2 SLP153 T02720250
KHKS 172353Z 26003KT 10SM CLR 29/24 A2998 RMK AO2 SLP144 60004 T02890244 10306 20261 56009
KHKS 172253Z 32004KT 10SM CLR 29/24 A2999 RMK AO2 SLP146 T02940244
KHKS 172153Z 29010KT 10SM CLR 31/24 A3000 RMK AO2 SLP149 T03060239
KHKS 172053Z 28010KT 10SM CLR 31/25 A3001 RMK AO2 SLP154 60004 T03060250 56018
KHKS 171953Z 25012KT 10SM CLR 28/25 A3002 RMK AO2 RAB10E19 SLP157 P0000 T02830250
KHKS 171853Z 27009KT 10SM SCT010 SCT037 BKN050 28/27 A3005 RMK AO2 RAE05B10E50 SLP167 P0004 T02780267
KHKS 171815Z 26010KT 6SM -RA BR SCT009 BKN060 OVC100 26/26 A3006 RMK AO2 RAE05B10 P0001 T02610256
KHKS 171808Z 26010KT 10SM BKN009 BKN060 BKN095 27/25 A3007 RMK AO2 RAE05 P0000 T02670250
KHKS 171753Z 26009KT 10SM -RA SCT010 BKN060 26/25 A3007 RMK AO2 RAB47 SLP172 P0000 60034 T02610250 10267 20244 58005
KHKS 171730Z 25009KT 10SM FEW010 SCT080 27/25 A3007 RMK AO2 T02670250
KHKS 171715Z 24007KT 10SM VCTS BKN075 27/25 A3007 RMK AO2 T02670250
KHKS 171653Z 25009KT 10SM BKN065 OVC075 26/24 A3008 RMK AO2 RAE03 SLP177 P0000 T02560244
KHKS 171626Z 22009KT 9SM FEW006 BKN060 BKN075 26/25 A3008 RMK AO2 RAE03 P0000 T02610250
KHKS 171553Z 19007KT 7SM -RA FEW013 BKN042 OVC060 25/24 A3008 RMK AO2 TSB11E26B28E43 SLP179 P0031 T02500244
KHKS 171549Z 19007KT 7SM -RA SCT013 BKN032 OVC060 25/24 A3008 RMK AO2 TSB11E26B28E43 P0031
KHKS 171533Z 19008KT 3SM -TSRA BR FEW007 BKN032 OVC039 25/24 A3008 RMK AO2 TSB11E26B28 P0031 T02500244
KHKS 171530Z 20008KT 1 1/4SM TSRA BR FEW007 BKN011 OVC039 25/25 A3008 RMK AO2 TSB11E26B28 P0031 T02500250
KHKS 171526Z 19008KT 1/2SM +RA FG BKN009 BKN013 OVC032 24/24 A3008 RMK AO2 TSB11E26 P0030 T02440244
KHKS 171519Z 00000KT 1 1/4SM TSRA BR OVC009 25/25 A3008 RMK AO2 VIS 1/4V5 LTG DSNT SW TSB11 P0020 T02500250
KHKS 171517Z 00000KT 3SM -TSRA BR OVC009 26/25 A3008 RMK AO2 LTG DSNT SW TSB11 P0010 T02560250
KHKS 171509Z VRB03KT 2SM -RA BR OVC008 25/25 A3008 RMK AO2 P0008 T02500250
KHKS 171500Z VRB03KT 3/4SM +RA BR BKN008 BKN018 OVC031 26/25 A3008 RMK AO2 LTG DSNT SW P0007 T02560250
KHKS 171458Z 21004KT 1SM +RA BR SCT008 BKN012 OVC045 26/25 A3008 RMK AO2 LTG DSNT SW P0005 T02560250
KHKS 171453Z 22004KT 2 1/2SM RA BR BKN011 BKN031 OVC050 26/25 A3007 RMK AO2 LTG DSNT SW RAB46 CIG 008V014 SLP175 P0002 60003 T02560250 51012
KHKS 171451Z 21005KT 4SM RA BR BKN011 BKN021 OVC050 26/24 A3007 RMK AO2 LTG DSNT SW RAB46 CIG 008V014 P0001
KHKS 171408Z 00000KT 8SM FEW004 OVC060 26/25 A3007 RMK AO2 LTG DSNT E T02560250
KHKS 171353Z 00000KT 8SM VCTS FEW004 BKN060 OVC070 26/25 A3007 RMK AO2 RAE1259 SLP174 P0000 T02560250
KHKS 171335Z 06004KT 8SM FEW004 BKN065 26/25 A3006 RMK AO2 RAE1259 P0000 T02560250
KHKS 171313Z 00000KT 9SM BKN070 BKN100 25/24 A3005 RMK AO2 RAE1259 P0000 T02500244
KHKS 171253Z 00000KT 7SM VCTS -RA BKN070 OVC090 24/24 A3005 RMK AO2 RAB38 SLP168 P0001 T02440244
KHKS 171153Z 00000KT 7SM FEW085 FEW120 24/24 A3004 RMK AO2 SLP163 70173 T02390239 10239 20233 53008
KHKS 171053Z AUTO 00000KT 9SM FEW085 23/23 A3002 RMK AO2 SLP158 T02330233
KHKS 170953Z AUTO 18004KT 8SM FEW004 OVC095 23/23 A3002 RMK AO2 SLP155 T02330233
KHKS 170919Z AUTO 17004KT 8SM SCT004 BKN090 23/23 A3001 RMK AO2 T02330233
KHKS 170910Z AUTO 18004KT 8SM BKN004 OVC085 23/23 A3001 RMK AO2 T02330233
KHKS 170853Z AUTO 17004KT 7SM SCT004 BKN080 23/23 A3001 RMK AO2 SLP154 T02330233 53005
KHKS 170753Z AUTO 14003KT 9SM CLR 23/23 A3000 RMK AO2 SLP150 T02330233
KHKS 170653Z AUTO 26003KT 10SM CLR 23/23 A3000 RMK AO2 SLP148 T02330233
KHKS 170553Z AUTO 27003KT 10SM CLR 23/23 A3000 RMK AO2 SLP148 60019 T02330233 10239 20228 403440228 58015
KHKS 170453Z AUTO 29004KT 10SM SCT006 23/23 A3002 RMK AO2 SLP157 T02330233
KHKS 170444Z AUTO 28005KT 10SM BKN006 23/23 A3003 RMK AO2 T02330233
KHKS 170419Z AUTO 29007KT 10SM FEW006 SCT065 24/24 A3005 RMK AO2 T02390239
KHKS 170353Z AUTO 00000KT 10SM VCTS FEW070 24/23 A3004 RMK AO2 LTG DSNT ALQDS RAE04 TSE08 SLP165 P0000 T02390233
KHKS 170348Z AUTO 00000KT 10SM VCTS CLR 24/23 A3004 RMK AO2 LTG DSNT S-NW RAE04 TSE08 P0000
KHKS 170312Z AUTO 16003KT 10SM FEW055 FEW100 24/23 A3002 RMK AO2 LTG DSNT ALQDS RAE04 TSE08 P0000 T02390233
KHKS 170253Z AUTO 17005KT 10SM -TSRA FEW055 FEW075 BKN110 23/23 A3001 RMK AO2 LTG DSNT ALQDS SLP154 P0004 60019 T02330233 58008
KHKS 170212Z AUTO 18008KT 8SM -TSRA SCT010 BKN065 OVC110 23/23 A3005 RMK AO2 LTG DSNT ALQDS PRESFR P0003 T02330233
KHKS 170203Z AUTO 19007KT 6SM TSRA BR BKN010 BKN034 OVC055 23/23 A3007 RMK AO2 LTG DSNT ALQDS P0003 T02330233
KHKS 170153Z 28008KT 10SM -TSRA BKN008 BKN013 23/23 A3009 RMK AO2 WSHFT 0133 LTG DSNT ALQDS TSB05 CIG 006V011 SLP180 P0007 T02330233
KHKS 170139Z 29011KT 10SM -TSRA SCT006 SCT120 23/23 A3008 RMK AO2 LTG DSNT ALQDS TSB05 P0006 T02330233
KHKS 170107Z 16007KT 7SM TSRA BKN110 23/23 A3004 RMK AO2 LTG DSNT ALQDS TSB05 P0003 T02280228
KHKS 170053Z 14006KT 7SM VCTS RA BKN110 23/23 A3004 RMK AO2 LTG DSNT ALQDS SLP162 P0008 T02280228
KHKS 170011Z 16007KT 6SM -RA BR SCT033 SCT070 BKN110 23/22 A3005 RMK AO2 LTG DSNT N-E P0003 T02280222
KHKS 162357Z 12009KT 3SM +RA BR BKN027 OVC070 23/22 A3004 RMK AO2 LTG DSNT N AND NE PRESFR P0001 T02280222
KHKS 162353Z 12009KT 1 1/2SM +RA BR OVC025 23/22 A3004 RMK AO2 WSHFT 2318 LTG DSNT N AND NE PRESFR SLP166 P0154 60154 T02280222 10344 20228 53022
KHKS 162349Z 11009KT 1SM +RA BR VV017 23/23 A3005 RMK AO2 WSHFT 2318 LTG DSNT N AND NE PRESFR P0152
KHKS 162332Z 11011G23KT 3/4SM +RA BR FEW006 BKN013 OVC037 23/23 A3008 RMK AO2 WSHFT 2318 LTG DSNT N AND NE P0079 T02280228
KHKS 162324Z 06016G23KT 3/4SM +RA BR BKN006 OVC035 23/23 A3008 RMK AO2 LTG DSNT N AND NE PRESRR P0047 T02330233
KHKS 162321Z 04011G23KT 1SM +RA BR SCT006 BKN010 OVC037 24/24 A3007 RMK AO2 LTG DSNT N AND NE PRESRR P0032 T02390239
KHKS 162313Z 03011G21KT 2SM +RA BR FEW006 SCT028 OVC037 24/23 A3005 RMK AO2 LTG DSNT NW-NE PRESRR P0006 T02390233
KHKS 162305Z 06010G20KT 4SM RA BR FEW019 SCT026 OVC034 25/23 A3003 RMK AO2 LTG DSNT N AND NW PRESRR P0001 T02500233
KHKS 162253Z 09019G31KT 9SM -RA SCT020 BKN027 OVC047 27/23 A2999 RMK AO2 PK WND 09031/2251 LTG DSNT N AND NW RAB53 SLP146 P0000 T02720228
KHKS 162153Z 24005KT 10SM CLR 33/25 A2998 RMK AO2 LTG DSNT NW SLP142 T03280250
KHKS 162053Z 26008KT 10SM CLR 33/26 A2998 RMK AO2 LTG DSNT NE AND E TSE22 SLP143 T03280256 55018
KHKS 162028Z 25008KT 10SM VCTS CLR 33/26 A2997 RMK AO2 TSE22 T03280256
KHKS 161953Z 26007KT 10SM TS CLR 32/26 A2997 RMK AO2 LTG DSNT SW TSB43 SLP140 T03220256
KHKS 161943Z 25007KT 10SM TS CLR 32/25 A2998 RMK AO2 TSB43 T03220250
KHKS 161853Z 28015G20KT 10SM FEW037 SCT047 SCT080 33/25 A3000 RMK AO2 LTG DSNT N SLP148 T03280250
KHKS 161753Z 32006KT 10SM FEW110 33/24 A3003 RMK AO2 SLP161 T03280244 10344 20244 58008
KHKS 161653Z 28010KT 10SM FEW035 34/25 A3005 RMK AO2 SLP166 T03390250
KHKS 161553Z 28007KT 250V310 10SM CLR 33/25 A3005 RMK AO2 SLP167 T03280250
KHKS 161453Z 29010KT 10SM CLR 31/25 A3006 RMK AO2 SLP170 T03110250 50008
KHKS 161353Z 27006KT 10SM SCT060 SCT070 27/24 A3007 RMK AO2 SLP173 T02720244